This is the latest recevied weather packets stored in our database for station/object F6JSP-13. If no packets are shown the sender has not sent any weather packets the latest 10 day(s).
| Time | Temp. | Humidity | Pressure | Rain* | Wind** | Luminosity | Snow |
|---|---|---|---|---|---|---|---|
| 1777693805 | 13.33° C | 96% | 1015.4 hPa | 0 mm | - | 0 W/m² | - |
| 1777693206 | 13.33° C | 96% | 1015.5 hPa | 0 mm | - | 0 W/m² | - |
| 1777691105 | 12.78° C | 95% | 1015.7 hPa | 0 mm | - | 0 W/m² | - |
| 1777689605 | 12.78° C | 94% | 1015.8 hPa | 0 mm | - | 0 W/m² | - |
| 1777689305 | 12.78° C | 94% | 1015.8 hPa | 0 mm | - | 0 W/m² | - |
| 1777680305 | 13.89° C | 90% | 1017.6 hPa | 0 mm | - | 0 W/m² | - |
| 1777677304 | 14.44° C | 89% | 1017.6 hPa | 0 mm | - | 0 W/m² | - |
| 1777675504 | 15° C | 86% | 1017.7 hPa | 0 mm | - | 0 W/m² | - |
| 1777673705 | 16.11° C | 82% | 1017.6 hPa | 0 mm | - | 0 W/m² | - |
| 1777673406 | 16.11° C | 81% | 1017.4 hPa | 0 mm | - | 0 W/m² | - |
| 1777665306 | 18.89° C | 71% | 1017.9 hPa | 0 mm | - | 0 W/m² | - |
| 1777664706 | 19.44° C | 70% | 1017.7 hPa | 0 mm | - | 0 W/m² | - |
| 1777664105 | 19.44° C | 69% | 1017.8 hPa | 0 mm | - | 0 W/m² | - |
| 1777660506 | 20.56° C | 59% | 1017.7 hPa | 0 mm | - | 12 W/m² | - |
| 1777652706 | 24.44° C | 44% | 1016.8 hPa | 0 mm | - | 252 W/m² | - |
| 1777650006 | 23.89° C | 45% | 1017 hPa | 0 mm | - | 307 W/m² | - |
| 1777649105 | 23.89° C | 43% | 1017 hPa | 0 mm | - | 581 W/m² | - |
| 1777647306 | 23.89° C | 49% | 1017.3 hPa | 0 mm | - | 656 W/m² | - |
| 1777642506 | 22.22° C | 53% | 1018.1 hPa | 0 mm | - | 810 W/m² | - |
| 1777641006 | 21.67° C | 56% | 1018 hPa | 0 mm | - | 650 W/m² | - |
| 1777638606 | 21.11° C | 57% | 1018.3 hPa | 0 mm | - | 509 W/m² | - |
| 1777638306 | 21.67° C | 57% | 1018.5 hPa | 0 mm | - | 657 W/m² | - |
| 1777636206 | 20° C | 65% | 1018.6 hPa | 0 mm | - | 806 W/m² | - |
| 1777635906 | 20.56° C | 65% | 1018.8 hPa | 0 mm | - | 820 W/m² | - |
| 1777634106 | 19.44° C | 75% | 1019 hPa | 0 mm | - | 169 W/m² | - |
* Rain latest hour (hover to see other rain measurements)
** Current wind speed in m/s (hover to see current wind gust speed)